Time;durP1;ratioP1;P1;durP2;ratioP2;P2;SDS_P1;SDS_P2;PMS_P1;PMS_P2;Temp;Humidity;BMP_temperature;BMP_pressure;BME280_temperature;BME280_humidity;BME280_pressure;Samples;Min_cycle;Max_cycle;Signal;HPM_P1;HPM_P2
2021/09/05 00:00:24;;;;;;;1999.90;999.90;;;;;;;;;;5058769;28;20458;-84
2021/09/05 00:02:51;;;;;;;1999.90;999.90;;;;;;;;;;5059188;28;20454;-84
2021/09/05 00:05:19;;;;;;;1999.90;999.90;;;;;;;;;;5058857;28;20452;-85
2021/09/05 00:07:47;;;;;;;1999.90;999.90;;;;;;;;;;5059206;28;20451;-86
2021/09/05 00:10:15;;;;;;;1999.90;999.90;;;;;;;;;;5059837;28;20989;-85
2021/09/05 00:12:42;;;;;;;1999.90;999.90;;;;;;;;;;5060400;28;20466;-84
2021/09/05 00:15:10;;;;;;;1999.90;999.90;;;;;;;;;;5059769;28;20823;-85
2021/09/05 00:17:37;;;;;;;1999.90;999.90;;;;;;;;;;5060641;28;20452;-84
2021/09/05 00:20:05;;;;;;;1999.90;999.90;;;;;;;;;;5070348;28;20890;-83
2021/09/05 00:22:33;;;;;;;1999.90;999.90;;;;;;;;;;5062328;28;20454;-83
2021/09/05 00:25:01;;;;;;;1999.90;999.90;;;;;;;;;;5058739;28;20444;-84
2021/09/05 00:27:28;;;;;;;1999.90;999.90;;;;;;;;;;5058487;28;20966;-83
2021/09/05 00:29:55;;;;;;;1999.90;999.90;;;;;;;;;;5058207;28;20459;-83
2021/09/05 00:32:22;;;;;;;1999.90;999.90;;;;;;;;;;5058266;28;20447;-83
2021/09/05 00:34:50;;;;;;;1999.90;999.90;;;;;;;;;;5059416;28;20451;-83
2021/09/05 00:37:17;;;;;;;1999.90;999.90;;;;;;;;;;5059912;28;20448;-82
2021/09/05 00:39:44;;;;;;;1999.90;999.90;;;;;;;;;;5059263;28;20547;-83
2021/09/05 00:42:12;;;;;;;1999.90;999.90;;;;;;;;;;5059686;28;20465;-83
2021/09/05 00:44:39;;;;;;;1999.90;999.90;;;;;;;;;;5058939;28;20452;-83
2021/09/05 00:47:06;;;;;;;1999.90;999.90;;;;;;;;;;5059405;28;20452;-83
2021/09/05 00:49:34;;;;;;;1999.90;999.90;;;;;;;;;;5059113;28;21008;-84
2021/09/05 00:52:01;;;;;;;1999.90;999.90;;;;;;;;;;5060044;28;20453;-83
2021/09/05 00:54:28;;;;;;;1999.90;999.90;;;;;;;;;;5060780;28;20461;-83
2021/09/05 00:56:55;;;;;;;1999.90;999.90;;;;;;;;;;5060425;28;20954;-84
2021/09/05 00:59:23;;;;;;;1999.90;999.90;;;;;;;;;;5060107;28;20493;-83
2021/09/05 01:01:50;;;;;;;1999.90;999.90;;;;;;;;;;5060878;28;20805;-83
2021/09/05 01:04:17;;;;;;;1999.90;999.90;;;;;;;;;;5061035;28;20449;-83
2021/09/05 01:06:45;;;;;;;1999.90;999.90;;;;;;;;;;5060033;28;20455;-85
2021/09/05 01:09:13;;;;;;;1999.90;999.90;;;;;;;;;;5061322;28;20470;-84
2021/09/05 01:11:40;;;;;;;1999.90;999.90;;;;;;;;;;5060512;28;20462;-84
2021/09/05 01:14:08;;;;;;;1999.90;999.90;;;;;;;;;;5060134;28;20994;-85
2021/09/05 01:16:37;;;;;;;1999.90;999.90;;;;;;;;;;5060014;28;20452;-84
2021/09/05 01:19:05;;;;;;;1999.90;999.90;;;;;;;;;;5060681;28;20488;-84
2021/09/05 01:21:32;;;;;;;1999.90;999.90;;;;;;;;;;5060789;28;20470;-84
2021/09/05 01:23:59;;;;;;;1999.90;999.90;;;;;;;;;;5061698;28;21219;-85
2021/09/05 01:26:27;;;;;;;1999.90;999.90;;;;;;;;;;5063974;28;20448;-85
2021/09/05 01:28:55;;;;;;;1999.90;999.90;;;;;;;;;;5062115;28;20515;-86
2021/09/05 01:31:22;;;;;;;1999.90;999.90;;;;;;;;;;5063270;28;20457;-85
2021/09/05 01:33:50;;;;;;;1999.90;999.90;;;;;;;;;;5063700;28;20534;-85
2021/09/05 01:36:17;;;;;;;1999.90;999.90;;;;;;;;;;5063574;28;20465;-85
2021/09/05 01:38:44;;;;;;;1999.90;999.90;;;;;;;;;;5063640;28;20559;-85
2021/09/05 01:41:11;;;;;;;1999.90;999.90;;;;;;;;;;5061561;28;20451;-86
2021/09/05 01:43:38;;;;;;;1999.90;999.90;;;;;;;;;;5061292;28;20448;-85
2021/09/05 01:46:07;;;;;;;1999.90;999.90;;;;;;;;;;5062360;28;20519;-84
2021/09/05 01:48:34;;;;;;;1999.90;999.90;;;;;;;;;;5062100;28;20835;-84
2021/09/05 01:51:01;;;;;;;1999.90;999.90;;;;;;;;;;5062568;28;20494;-84
2021/09/05 01:53:28;;;;;;;1999.90;999.90;;;;;;;;;;5062264;28;20450;-85
2021/09/05 01:55:55;;;;;;;1999.90;999.90;;;;;;;;;;5063970;28;20454;-85
2021/09/05 01:58:23;;;;;;;1999.90;999.90;;;;;;;;;;5066126;28;20473;-86
2021/09/05 02:00:51;;;;;;;1999.90;999.90;;;;;;;;;;5067246;28;20454;-84
2021/09/05 02:03:19;;;;;;;1999.90;999.90;;;;;;;;;;5062859;28;20451;-84
2021/09/05 02:05:47;;;;;;;1999.90;999.90;;;;;;;;;;5062691;28;20462;-84
2021/09/05 02:08:14;;;;;;;1999.90;999.90;;;;;;;;;;5062393;28;20456;-84
2021/09/05 02:10:41;;;;;;;1999.90;999.90;;;;;;;;;;5062376;28;20951;-83
2021/09/05 02:13:08;;;;;;;1999.90;999.90;;;;;;;;;;5062053;28;20458;-84
2021/09/05 02:15:35;;;;;;;1999.90;999.90;;;;;;;;;;5063643;28;20451;-85
2021/09/05 02:18:02;;;;;;;1999.90;999.90;;;;;;;;;;5074915;28;20445;-83
2021/09/05 02:20:31;;;;;;;1999.90;999.90;;;;;;;;;;5069079;28;20486;-84
2021/09/05 02:22:58;;;;;;;1999.90;999.90;;;;;;;;;;5065249;28;20455;-84
2021/09/05 02:25:25;;;;;;;1999.90;999.90;;;;;;;;;;5063946;28;20830;-84
2021/09/05 02:27:52;;;;;;;1999.90;999.90;;;;;;;;;;5063194;28;20454;-85
2021/09/05 02:30:19;;;;;;;1999.90;999.90;;;;;;;;;;5062345;28;21034;-85
2021/09/05 02:32:46;;;;;;;1999.90;999.90;;;;;;;;;;5061715;28;20471;-84
2021/09/05 02:35:13;;;;;;;1999.90;999.90;;;;;;;;;;5064004;28;20461;-84
2021/09/05 02:37:42;;;;;;;1999.90;999.90;;;;;;;;;;5062340;28;20458;-85
2021/09/05 02:40:09;;;;;;;1999.90;999.90;;;;;;;;;;5062504;28;20495;-86
2021/09/05 02:42:37;;;;;;;1999.90;999.90;;;;;;;;;;5064559;28;20458;-85
2021/09/05 02:45:04;;;;;;;1999.90;999.90;;;;;;;;;;5063855;28;20454;-84
2021/09/05 02:47:31;;;;;;;1999.90;999.90;;;;;;;;;;5062760;28;20820;-85
2021/09/05 02:49:59;;;;;;;1999.90;999.90;;;;;;;;;;5060719;28;20460;-85
2021/09/05 02:52:26;;;;;;;1999.90;999.90;;;;;;;;;;5060508;28;20455;-83
2021/09/05 02:54:54;;;;;;;1999.90;999.90;;;;;;;;;;5057076;28;20460;-85
2021/09/05 02:57:21;;;;;;;1999.90;999.90;;;;;;;;;;5055529;28;20459;-83
2021/09/05 02:59:48;;;;;;;1999.90;999.90;;;;;;;;;;5056734;28;20484;-84
2021/09/05 03:02:15;;;;;;;1999.90;999.90;;;;;;;;;;5055782;28;20857;-84
2021/09/05 03:04:42;;;;;;;1999.90;999.90;;;;;;;;;;5056269;28;20444;-82
2021/09/05 03:07:10;;;;;;;1999.90;999.90;;;;;;;;;;5056873;28;20458;-83
2021/09/05 03:09:38;;;;;;;1999.90;999.90;;;;;;;;;;5055759;28;20473;-81
2021/09/05 03:12:07;;;;;;;1999.90;999.90;;;;;;;;;;5055900;28;20836;-83
2021/09/05 03:14:34;;;;;;;1999.90;999.90;;;;;;;;;;5056298;28;20475;-82
2021/09/05 03:17:01;;;;;;;1999.90;999.90;;;;;;;;;;5056843;28;20460;-83
2021/09/05 03:19:28;;;;;;;1999.90;999.90;;;;;;;;;;5055270;28;20501;-83
2021/09/05 03:21:55;;;;;;;1999.90;999.90;;;;;;;;;;5055228;28;20458;-84
2021/09/05 03:24:23;;;;;;;1999.90;999.90;;;;;;;;;;5055813;28;20455;-81
2021/09/05 03:26:50;;;;;;;1999.90;999.90;;;;;;;;;;5061425;28;20838;-83
2021/09/05 03:29:18;;;;;;;1999.90;999.90;;;;;;;;;;5060462;28;20467;-82
2021/09/05 03:31:46;;;;;;;1999.90;999.90;;;;;;;;;;5060957;28;20457;-84
2021/09/05 03:34:13;;;;;;;1999.90;999.90;;;;;;;;;;5060781;28;20459;-83
2021/09/05 03:36:40;;;;;;;1999.90;999.90;;;;;;;;;;5061657;28;20455;-83
2021/09/05 03:39:07;;;;;;;1999.90;999.90;;;;;;;;;;5060138;28;20501;-84
2021/09/05 03:41:34;;;;;;;1999.90;999.90;;;;;;;;;;5060345;28;20458;-82
2021/09/05 03:44:01;;;;;;;1999.90;999.90;;;;;;;;;;5061805;28;20427;-85
2021/09/05 03:46:30;;;;;;;1999.90;999.90;;;;;;;;;;5060327;28;20208;-85
2021/09/05 03:48:57;;;;;;;1999.90;999.90;;;;;;;;;;5061119;28;20479;-85
2021/09/05 03:51:24;;;;;;;1999.90;999.90;;;;;;;;;;5059857;28;20452;-84
2021/09/05 03:53:51;;;;;;;1999.90;999.90;;;;;;;;;;5059318;28;20459;-85
2021/09/05 03:56:18;;;;;;;1999.90;999.90;;;;;;;;;;5061560;28;20458;-85
2021/09/05 03:58:46;;;;;;;1999.90;999.90;;;;;;;;;;5057832;28;20533;-83
2021/09/05 04:01:13;;;;;;;1999.90;999.90;;;;;;;;;;5059665;28;20444;-85
2021/09/05 04:03:41;;;;;;;1999.90;999.90;;;;;;;;;;5061627;28;20951;-84
2021/09/05 04:06:08;;;;;;;1999.90;999.90;;;;;;;;;;5061743;28;21000;-84
2021/09/05 04:08:41;;;;;;;1999.90;999.90;;;;;;;;;;5058773;28;20472;-84
2021/09/05 04:11:08;;;;;;;1999.90;999.90;;;;;;;;;;5057121;28;20487;-83
2021/09/05 04:13:35;;;;;;;1999.90;999.90;;;;;;;;;;5056922;28;20456;-83
2021/09/05 04:16:02;;;;;;;1999.90;999.90;;;;;;;;;;5069389;28;20467;-84
2021/09/05 04:18:29;;;;;;;1999.90;999.90;;;;;;;;;;5063521;28;20478;-84
2021/09/05 04:20:58;;;;;;;1999.90;999.90;;;;;;;;;;5053756;28;21055;-82
2021/09/05 04:23:26;;;;;;;1999.90;999.90;;;;;;;;;;5056694;28;20454;-84
2021/09/05 04:25:53;;;;;;;1999.90;999.90;;;;;;;;;;5055167;28;20455;-82
2021/09/05 04:28:20;;;;;;;1999.90;999.90;;;;;;;;;;5054376;28;21002;-84
2021/09/05 04:30:47;;;;;;;1999.90;999.90;;;;;;;;;;5055726;28;20447;-83
2021/09/05 04:33:14;;;;;;;1999.90;999.90;;;;;;;;;;5055938;28;20457;-84
2021/09/05 04:35:41;;;;;;;1999.90;999.90;;;;;;;;;;5055966;28;20450;-85
2021/09/05 04:38:09;;;;;;;1999.90;999.90;;;;;;;;;;5059034;28;20208;-86
2021/09/05 04:40:37;;;;;;;1999.90;999.90;;;;;;;;;;5060286;28;20487;-84
2021/09/05 04:43:04;;;;;;;1999.90;999.90;;;;;;;;;;5059411;28;20455;-84
2021/09/05 04:45:31;;;;;;;1999.90;999.90;;;;;;;;;;5060026;28;20462;-85
2021/09/05 04:47:58;;;;;;;1999.90;999.90;;;;;;;;;;5058986;28;20465;-84
2021/09/05 04:50:25;;;;;;;1999.90;999.90;;;;;;;;;;5059793;28;20457;-85
2021/09/05 04:52:52;;;;;;;1999.90;999.90;;;;;;;;;;5062315;28;20460;-85
2021/09/05 04:55:20;;;;;;;1999.90;999.90;;;;;;;;;;5058969;28;20465;-85
2021/09/05 04:57:48;;;;;;;1999.90;999.90;;;;;;;;;;5058754;28;20459;-85
2021/09/05 05:00:15;;;;;;;1999.90;999.90;;;;;;;;;;5058383;28;20502;-85
2021/09/05 05:02:43;;;;;;;1999.90;999.90;;;;;;;;;;5058445;28;20452;-85
2021/09/05 05:05:10;;;;;;;1999.90;999.90;;;;;;;;;;5060476;28;20456;-85
2021/09/05 05:07:38;;;;;;;1999.90;999.90;;;;;;;;;;5063687;28;20447;-87
2021/09/05 05:10:06;;;;;;;1999.90;999.90;;;;;;;;;;5054800;28;20507;-84
2021/09/05 05:12:34;;;;;;;1999.90;999.90;;;;;;;;;;5053669;28;20462;-83
2021/09/05 05:15:01;;;;;;;1999.90;999.90;;;;;;;;;;5053804;28;20473;-84
2021/09/05 05:17:29;;;;;;;1999.90;999.90;;;;;;;;;;5052483;28;20464;-85
2021/09/05 05:19:56;;;;;;;1999.90;999.90;;;;;;;;;;5053127;28;20495;-84
2021/09/05 05:22:23;;;;;;;1999.90;999.90;;;;;;;;;;5053732;28;20456;-84
2021/09/05 05:24:50;;;;;;;1999.90;999.90;;;;;;;;;;5095414;22;20523;-79
2021/09/05 05:27:18;;;;;;;1999.90;999.90;;;;;;;;;;5092715;28;20977;-79
2021/09/05 05:29:46;;;;;;;1999.90;999.90;;;;;;;;;;5093802;28;20450;-81
2021/09/05 05:32:13;;;;;;;1999.90;999.90;;;;;;;;;;5073335;28;20453;-80
2021/09/05 05:34:41;;;;;;;1999.90;999.90;;;;;;;;;;5073790;28;20482;-80
2021/09/05 05:37:08;;;;;;;1999.90;999.90;;;;;;;;;;5086012;28;20455;-80
2021/09/05 05:39:35;;;;;;;1999.90;999.90;;;;;;;;;;5093254;28;20488;-80
2021/09/05 05:42:02;;;;;;;1999.90;999.90;;;;;;;;;;5090762;28;20539;-81
2021/09/05 05:44:29;;;;;;;1999.90;999.90;;;;;;;;;;5079465;28;20473;-81
2021/09/05 05:46:58;;;;;;;1999.90;999.90;;;;;;;;;;5094475;28;20449;-82
2021/09/05 05:49:25;;;;;;;1999.90;999.90;;;;;;;;;;5094595;28;20455;-82
2021/09/05 05:51:52;;;;;;;1999.90;999.90;;;;;;;;;;5096445;28;20488;-81
2021/09/05 05:54:20;;;;;;;1999.90;999.90;;;;;;;;;;5093628;28;20555;-80
2021/09/05 05:56:47;;;;;;;1999.90;999.90;;;;;;;;;;5082376;28;21257;-82
2021/09/05 05:59:14;;;;;;;1999.90;999.90;;;;;;;;;;5074845;28;20473;-81
2021/09/05 06:01:42;;;;;;;1999.90;999.90;;;;;;;;;;5074484;28;21016;-81
2021/09/05 06:04:10;;;;;;;1999.90;999.90;;;;;;;;;;5074231;28;20518;-81
2021/09/05 06:06:39;;;;;;;1999.90;999.90;;;;;;;;;;5073586;28;20446;-81
2021/09/05 06:09:06;;;;;;;1999.90;999.90;;;;;;;;;;5073669;28;20481;-81
2021/09/05 06:11:34;;;;;;;1999.90;999.90;;;;;;;;;;5092987;28;20443;-81
2021/09/05 06:14:01;;;;;;;1999.90;999.90;;;;;;;;;;5098335;28;20500;-82
2021/09/05 06:16:28;;;;;;;1999.90;999.90;;;;;;;;;;5091134;28;20509;-82
2021/09/05 06:18:56;;;;;;;1999.90;999.90;;;;;;;;;;5097451;28;20962;-82
2021/09/05 06:21:24;;;;;;;1999.90;999.90;;;;;;;;;;5099140;28;20576;-82
2021/09/05 06:23:51;;;;;;;1999.90;999.90;;;;;;;;;;5099616;28;20481;-82
2021/09/05 06:26:18;;;;;;;1999.90;999.90;;;;;;;;;;5100585;28;20463;-82
2021/09/05 06:28:46;;;;;;;1999.90;999.90;;;;;;;;;;5099830;28;20965;-82
2021/09/05 06:31:13;;;;;;;1999.90;999.90;;;;;;;;;;5101467;28;20451;-82
2021/09/05 06:33:40;;;;;;;1999.90;999.90;;;;;;;;;;5103462;28;20472;-82
2021/09/05 06:36:13;;;;;;;1999.90;999.90;;;;;;;;;;5104672;28;20449;-82
2021/09/05 06:38:41;;;;;;;1999.90;999.90;;;;;;;;;;5103656;28;20468;-82
2021/09/05 06:41:09;;;;;;;1999.90;999.90;;;;;;;;;;5103634;28;20484;-83
2021/09/05 06:43:36;;;;;;;1999.90;999.90;;;;;;;;;;5102183;28;20472;-82
2021/09/05 06:46:03;;;;;;;1999.90;999.90;;;;;;;;;;5094803;28;20443;-83
2021/09/05 06:48:30;;;;;;;1999.90;999.90;;;;;;;;;;5097161;28;20451;-82
2021/09/05 06:50:57;;;;;;;1999.90;999.90;;;;;;;;;;5091480;28;20453;-82
2021/09/05 06:53:24;;;;;;;1999.90;999.90;;;;;;;;;;5091580;28;20442;-83
2021/09/05 06:55:53;;;;;;;1999.90;999.90;;;;;;;;;;5088506;28;20450;-83
2021/09/05 06:58:20;;;;;;;1999.90;999.90;;;;;;;;;;5094462;28;20510;-83
2021/09/05 07:00:47;;;;;;;1999.90;999.90;;;;;;;;;;5092786;28;20485;-83
2021/09/05 07:03:14;;;;;;;1999.90;999.90;;;;;;;;;;5098888;28;20477;-83
2021/09/05 07:05:42;;;;;;;1999.90;999.90;;;;;;;;;;5093092;28;20535;-83
2021/09/05 07:08:10;;;;;;;1999.90;999.90;;;;;;;;;;5081670;28;20497;-82
2021/09/05 07:10:37;;;;;;;1999.90;999.90;;;;;;;;;;5095384;28;20450;-83
2021/09/05 07:13:05;;;;;;;1999.90;999.90;;;;;;;;;;5088658;28;20536;-82
2021/09/05 07:15:34;;;;;;;1999.90;999.90;;;;;;;;;;5087483;28;20445;-82
2021/09/05 07:18:01;;;;;;;1999.90;999.90;;;;;;;;;;5084397;28;20451;-82
2021/09/05 07:20:29;;;;;;;1999.90;999.90;;;;;;;;;;5091382;28;20505;-83
2021/09/05 07:22:56;;;;;;;1999.90;999.90;;;;;;;;;;5089297;28;20450;-83
2021/09/05 07:25:25;;;;;;;1999.90;999.90;;;;;;;;;;5090256;28;20534;-82
2021/09/05 07:27:52;;;;;;;1999.90;999.90;;;;;;;;;;5084584;28;20553;-83
2021/09/05 07:30:21;;;;;;;1999.90;999.90;;;;;;;;;;5089050;28;20446;-83
2021/09/05 07:32:48;;;;;;;1999.90;999.90;;;;;;;;;;5098881;28;20445;-82
2021/09/05 07:35:15;;;;;;;1999.90;999.90;;;;;;;;;;5098562;28;20474;-82
2021/09/05 07:37:47;;;;;;;1999.90;999.90;;;;;;;;;;5097831;28;20514;-82
2021/09/05 07:40:15;;;;;;;1999.90;999.90;;;;;;;;;;5095159;28;20609;-82
2021/09/05 07:42:42;;;;;;;1999.90;999.90;;;;;;;;;;5089228;28;20477;-82
2021/09/05 07:45:10;;;;;;;1999.90;999.90;;;;;;;;;;5075882;28;20857;-81
2021/09/05 07:47:38;;;;;;;1999.90;999.90;;;;;;;;;;5079139;28;20454;-81
2021/09/05 07:50:06;;;;;;;1999.90;999.90;;;;;;;;;;5096171;28;20456;-82
2021/09/05 07:52:33;;;;;;;1999.90;999.90;;;;;;;;;;5096650;28;20459;-82
2021/09/05 07:55:00;;;;;;;1999.90;999.90;;;;;;;;;;5096036;28;20515;-82
2021/09/05 07:57:27;;;;;;;1999.90;999.90;;;;;;;;;;5096303;28;20968;-82
2021/09/05 07:59:55;;;;;;;1999.90;999.90;;;;;;;;;;5096219;28;20441;-82
2021/09/05 08:02:22;;;;;;;1999.90;999.90;;;;;;;;;;5096029;28;20489;-82
2021/09/05 08:04:50;;;;;;;1999.90;999.90;;;;;;;;;;5096276;28;20681;-83
2021/09/05 08:07:18;;;;;;;1999.90;999.90;;;;;;;;;;5076349;28;20457;-82
2021/09/05 08:09:45;;;;;;;1999.90;999.90;;;;;;;;;;5076185;28;20469;-81
2021/09/05 08:12:12;;;;;;;1999.90;999.90;;;;;;;;;;5077402;28;20457;-82
2021/09/05 08:14:40;;;;;;;1999.90;999.90;;;;;;;;;;5096639;28;20464;-82
2021/09/05 08:17:07;;;;;;;1999.90;999.90;;;;;;;;;;5095662;28;20454;-82
2021/09/05 08:19:34;;;;;;;1999.90;999.90;;;;;;;;;;5082038;28;20452;-81
2021/09/05 08:22:02;;;;;;;1999.90;999.90;;;;;;;;;;5076868;28;20505;-82
2021/09/05 08:24:30;;;;;;;1999.90;999.90;;;;;;;;;;5075698;28;20801;-82
2021/09/05 08:26:57;;;;;;;1999.90;999.90;;;;;;;;;;5075645;28;20920;-81
2021/09/05 08:29:24;;;;;;;1999.90;999.90;;;;;;;;;;5076069;28;20840;-82
2021/09/05 08:31:51;;;;;;;1999.90;999.90;;;;;;;;;;5075246;28;20462;-81
2021/09/05 08:34:18;;;;;;;1999.90;999.90;;;;;;;;;;5078712;28;20481;-83
2021/09/05 08:36:45;;;;;;;1999.90;999.90;;;;;;;;;;5078388;28;20452;-84
2021/09/05 08:39:14;;;;;;;1999.90;999.90;;;;;;;;;;5076812;28;20455;-84
2021/09/05 08:41:41;;;;;;;1999.90;999.90;;;;;;;;;;5076759;28;20988;-85
2021/09/05 08:44:08;;;;;;;1999.90;999.90;;;;;;;;;;5076896;28;20470;-85
2021/09/05 08:46:36;;;;;;;1999.90;999.90;;;;;;;;;;5076300;28;20447;-84
2021/09/05 08:49:04;;;;;;;1999.90;999.90;;;;;;;;;;5075977;28;20461;-83
2021/09/05 08:51:31;;;;;;;1999.90;999.90;;;;;;;;;;5084551;28;20451;-84
2021/09/05 08:53:58;;;;;;;1999.90;999.90;;;;;;;;;;5096404;28;20997;-84
2021/09/05 08:56:26;;;;;;;1999.90;999.90;;;;;;;;;;5096317;28;20454;-84
2021/09/05 08:58:54;;;;;;;1999.90;999.90;;;;;;;;;;5096076;28;20456;-83
2021/09/05 09:01:21;;;;;;;1999.90;999.90;;;;;;;;;;5096059;28;20853;-83
2021/09/05 09:03:49;;;;;;;1999.90;999.90;;;;;;;;;;5096408;28;20470;-84
2021/09/05 09:06:19;;;;;;;1999.90;999.90;;;;;;;;;;5094229;28;20482;-84
2021/09/05 09:08:56;;;;;;;1999.90;999.90;;;;;;;;;;5088331;28;20474;-84
2021/09/05 09:11:23;;;;;;;1999.90;999.90;;;;;;;;;;5075037;28;20507;-83
2021/09/05 09:13:57;;;;;;;1999.90;999.90;;;;;;;;;;5086702;28;20471;-84
2021/09/05 09:16:35;;;;;;;1999.90;999.90;;;;;;;;;;5094209;28;21026;-83
2021/09/05 09:19:02;;;;;;;1999.90;999.90;;;;;;;;;;5100873;28;20438;-84
2021/09/05 09:21:37;;;;;;;1999.90;999.90;;;;;;;;;;5099597;28;20514;-85
2021/09/05 09:24:09;;;;;;;1999.90;999.90;;;;;;;;;;5079358;28;20490;-85
2021/09/05 09:26:36;;;;;;;1999.90;999.90;;;;;;;;;;5078837;28;20534;-84
2021/09/05 09:29:16;;;;;;;1999.90;999.90;;;;;;;;;;5079173;28;20443;-84
2021/09/05 09:31:45;;;;;;;1999.90;999.90;;;;;;;;;;5092812;28;20484;-85
2021/09/05 09:34:21;;;;;;;1999.90;999.90;;;;;;;;;;5099048;28;20901;-84
2021/09/05 09:36:48;;;;;;;1999.90;999.90;;;;;;;;;;5100286;28;20448;-85
2021/09/05 09:39:16;;;;;;;1999.90;999.90;;;;;;;;;;5099745;28;20450;-85
2021/09/05 09:41:43;;;;;;;1999.90;999.90;;;;;;;;;;5099308;28;20482;-85
2021/09/05 09:44:14;;;;;;;1999.90;999.90;;;;;;;;;;5099391;28;20661;-84
2021/09/05 09:46:43;;;;;;;1999.90;999.90;;;;;;;;;;5100232;28;20869;-85
2021/09/05 09:49:11;;;;;;;1999.90;999.90;;;;;;;;;;5102157;28;20454;-85
2021/09/05 09:51:39;;;;;;;1999.90;999.90;;;;;;;;;;5101155;28;20454;-84
2021/09/05 09:54:06;;;;;;;1999.90;999.90;;;;;;;;;;5099821;28;20473;-84
2021/09/05 09:56:33;;;;;;;1999.90;999.90;;;;;;;;;;5100229;28;20450;-84
2021/09/05 09:59:02;;;;;;;1999.90;999.90;;;;;;;;;;5100298;28;20437;-85
2021/09/05 10:01:32;;;;;;;1999.90;999.90;;;;;;;;;;5102405;28;20545;-85
2021/09/05 10:04:00;;;;;;;1999.90;999.90;;;;;;;;;;5102043;28;20466;-85
2021/09/05 10:06:28;;;;;;;1999.90;999.90;;;;;;;;;;5094077;28;20578;-86
2021/09/05 10:08:55;;;;;;;1999.90;999.90;;;;;;;;;;5084106;28;20564;-82
2021/09/05 10:11:23;;;;;;;1999.90;999.90;;;;;;;;;;5089332;28;20438;-83
2021/09/05 10:13:50;;;;;;;1999.90;999.90;;;;;;;;;;5091862;28;20461;-84
2021/09/05 10:16:17;;;;;;;1999.90;999.90;;;;;;;;;;5099372;28;20454;-83
2021/09/05 10:18:46;;;;;;;1999.90;999.90;;;;;;;;;;5102400;28;20454;-83
2021/09/05 10:21:14;;;;;;;1999.90;999.90;;;;;;;;;;5100700;28;20473;-82
2021/09/05 10:23:46;;;;;;;1999.90;999.90;;;;;;;;;;5100636;28;20492;-86
2021/09/05 10:26:15;;;;;;;1999.90;999.90;;;;;;;;;;5100898;28;20460;-86
2021/09/05 10:28:43;;;;;;;1999.90;999.90;;;;;;;;;;5101801;28;20517;-83
2021/09/05 10:31:11;;;;;;;1999.90;999.90;;;;;;;;;;5102404;28;20445;-84
2021/09/05 10:33:39;;;;;;;1999.90;999.90;;;;;;;;;;5101676;28;20867;-83
2021/09/05 10:36:09;;;;;;;1999.90;999.90;;;;;;;;;;5102192;28;20458;-83
2021/09/05 10:38:37;;;;;;;1999.90;999.90;;;;;;;;;;5101793;28;20488;-84
2021/09/05 10:41:08;;;;;;;1999.90;999.90;;;;;;;;;;5102275;28;20454;-84
2021/09/05 10:43:53;;;;;;;1999.90;999.90;;;;;;;;;;5102819;28;20826;-84
2021/09/05 10:46:21;;;;;;;1999.90;999.90;;;;;;;;;;5100399;28;20454;-84
2021/09/05 10:48:49;;;;;;;1999.90;999.90;;;;;;;;;;5101728;28;20450;-83
2021/09/05 10:51:18;;;;;;;1999.90;999.90;;;;;;;;;;5101536;28;20442;-84
2021/09/05 10:53:53;;;;;;;1999.90;999.90;;;;;;;;;;5102206;28;20838;-84
2021/09/05 10:56:21;;;;;;;1999.90;999.90;;;;;;;;;;5101101;28;20453;-83
2021/09/05 10:58:49;;;;;;;1999.90;999.90;;;;;;;;;;5101158;28;20468;-84
2021/09/05 11:01:23;;;;;;;1999.90;999.90;;;;;;;;;;5102026;28;20478;-86
2021/09/05 11:04:08;;;;;;;1999.90;999.90;;;;;;;;;;5101860;28;20469;-84
2021/09/05 11:06:38;;;;;;;1999.90;999.90;;;;;;;;;;5101107;28;20838;-83
2021/09/05 11:09:24;;;;;;;1999.90;999.90;;;;;;;;;;5101341;28;20511;-84
2021/09/05 11:11:54;;;;;;;1999.90;999.90;;;;;;;;;;5101694;28;20450;-84
2021/09/05 11:14:45;;;;;;;1999.90;999.90;;;;;;;;;;5101285;28;20450;-84
2021/09/05 11:17:13;;;;;;;1999.90;999.90;;;;;;;;;;5100432;28;20453;-83
2021/09/05 11:19:44;;;;;;;1999.90;999.90;;;;;;;;;;5101664;28;20451;-83
2021/09/05 11:22:12;;;;;;;1999.90;999.90;;;;;;;;;;5088630;28;20504;-83
2021/09/05 11:24:40;;;;;;;1999.90;999.90;;;;;;;;;;5096960;22;20482;-84
2021/09/05 11:27:08;;;;;;;1999.90;999.90;;;;;;;;;;5060817;28;20807;-85
2021/09/05 11:29:35;;;;;;;1999.90;999.90;;;;;;;;;;5061041;28;20456;-86
2021/09/05 11:32:03;;;;;;;1999.90;999.90;;;;;;;;;;5059988;28;20527;-87
2021/09/05 11:34:30;;;;;;;1999.90;999.90;;;;;;;;;;5062139;28;20459;-85
2021/09/05 11:36:57;;;;;;;1999.90;999.90;;;;;;;;;;5062289;28;20463;-86
2021/09/05 11:39:26;;;;;;;1999.90;999.90;;;;;;;;;;5062653;28;20448;-85
2021/09/05 11:41:53;;;;;;;1999.90;999.90;;;;;;;;;;5063109;28;20483;-87
2021/09/05 11:44:27;;;;;;;1999.90;999.90;;;;;;;;;;5051422;28;20449;-84
2021/09/05 11:47:07;;;;;;;1999.90;999.90;;;;;;;;;;5045158;28;20539;-84
2021/09/05 11:49:35;;;;;;;1999.90;999.90;;;;;;;;;;5057038;28;20808;-82
2021/09/05 11:52:02;;;;;;;1999.90;999.90;;;;;;;;;;5055820;28;20440;-83
2021/09/05 11:54:31;;;;;;;1999.90;999.90;;;;;;;;;;5059253;28;20458;-84
2021/09/05 11:56:58;;;;;;;1999.90;999.90;;;;;;;;;;5063637;28;20443;-83
2021/09/05 11:59:25;;;;;;;1999.90;999.90;;;;;;;;;;5062311;28;20432;-84
2021/09/05 12:01:53;;;;;;;1999.90;999.90;;;;;;;;;;5053875;28;20553;-85
2021/09/05 12:04:21;;;;;;;1999.90;999.90;;;;;;;;;;5052034;28;20809;-87
2021/09/05 12:06:49;;;;;;;1999.90;999.90;;;;;;;;;;5064265;28;20449;-84
2021/09/05 12:09:26;;;;;;;1999.90;999.90;;;;;;;;;;5059682;28;20432;-85
2021/09/05 12:11:58;;;;;;;1999.90;999.90;;;;;;;;;;5053011;28;20453;-83
2021/09/05 12:14:29;;;;;;;1999.90;999.90;;;;;;;;;;5055741;28;20436;-85
2021/09/05 12:16:56;;;;;;;1999.90;999.90;;;;;;;;;;5056077;28;20444;-85
2021/09/05 12:19:23;;;;;;;1999.90;999.90;;;;;;;;;;5062277;28;20513;-85
2021/09/05 12:21:57;;;;;;;1999.90;999.90;;;;;;;;;;5056121;28;20476;-85
2021/09/05 12:24:24;;;;;;;1999.90;999.90;;;;;;;;;;5059092;28;20452;-83
2021/09/05 12:26:51;;;;;;;1999.90;999.90;;;;;;;;;;5058991;28;20519;-85
2021/09/05 12:29:30;;;;;;;1999.90;999.90;;;;;;;;;;5055855;28;20445;-83
2021/09/05 12:32:01;;;;;;;1999.90;999.90;;;;;;;;;;5038167;28;20452;-82
2021/09/05 12:34:39;;;;;;;1999.90;999.90;;;;;;;;;;5054527;28;20502;-83
2021/09/05 12:37:13;;;;;;;1999.90;999.90;;;;;;;;;;5046455;28;20448;-83
2021/09/05 12:39:40;;;;;;;1999.90;999.90;;;;;;;;;;5048199;28;20452;-83
2021/09/05 12:42:08;;;;;;;1999.90;999.90;;;;;;;;;;5052156;28;20907;-83
2021/09/05 12:44:41;;;;;;;1999.90;999.90;;;;;;;;;;5048109;28;20453;-84
2021/09/05 12:47:09;;;;;;;1999.90;999.90;;;;;;;;;;5044650;28;20482;-84
2021/09/05 12:49:40;;;;;;;1999.90;999.90;;;;;;;;;;5045247;28;20454;-83
2021/09/05 12:52:09;;;;;;;1999.90;999.90;;;;;;;;;;5044470;28;20440;-83
2021/09/05 12:54:39;;;;;;;1999.90;999.90;;;;;;;;;;5044903;28;20855;-87
2021/09/05 12:57:07;;;;;;;1999.90;999.90;;;;;;;;;;5054388;28;20443;-82
2021/09/05 12:59:34;;;;;;;1999.90;999.90;;;;;;;;;;5040025;28;20468;-84
2021/09/05 13:02:02;;;;;;;1999.90;999.90;;;;;;;;;;5054606;28;20482;-83
2021/09/05 13:04:29;;;;;;;1999.90;999.90;;;;;;;;;;5047769;28;20984;-82
2021/09/05 13:06:57;;;;;;;1999.90;999.90;;;;;;;;;;5042831;28;20483;-86
2021/09/05 13:09:24;;;;;;;1999.90;999.90;;;;;;;;;;5043311;28;20807;-83
2021/09/05 13:11:51;;;;;;;1999.90;999.90;;;;;;;;;;5045556;28;20472;-86
2021/09/05 13:14:18;;;;;;;1999.90;999.90;;;;;;;;;;5050748;28;20452;-85
2021/09/05 13:16:45;;;;;;;1999.90;999.90;;;;;;;;;;5058172;28;20455;-84
2021/09/05 13:19:14;;;;;;;1999.90;999.90;;;;;;;;;;5060724;28;20450;-83
2021/09/05 13:21:41;;;;;;;1999.90;999.90;;;;;;;;;;5059291;28;20447;-84
2021/09/05 13:24:08;;;;;;;1999.90;999.90;;;;;;;;;;5058123;28;20455;-83
2021/09/05 13:26:36;;;;;;;1999.90;999.90;;;;;;;;;;5058401;28;20476;-86
2021/09/05 13:29:03;;;;;;;1999.90;999.90;;;;;;;;;;5059149;28;20456;-84
2021/09/05 13:31:33;;;;;;;1999.90;999.90;;;;;;;;;;5053823;28;20532;-83
2021/09/05 13:34:00;;;;;;;1999.90;999.90;;;;;;;;;;5056240;28;20452;-87
2021/09/05 13:36:29;;;;;;;1999.90;999.90;;;;;;;;;;5058258;28;20515;-85
2021/09/05 13:38:56;;;;;;;1999.90;999.90;;;;;;;;;;5058340;28;20467;-85
2021/09/05 13:41:23;;;;;;;1999.90;999.90;;;;;;;;;;5059853;28;20466;-84
2021/09/05 13:43:50;;;;;;;1999.90;999.90;;;;;;;;;;5062634;28;20488;-84
2021/09/05 13:46:17;;;;;;;1999.90;999.90;;;;;;;;;;5060549;28;20474;-86